createdAt,value
2022-11-10T00:02:29.834Z,99859.28
2022-11-10T00:05:05.278Z,99871.22
2022-11-10T00:07:38.873Z,99880.28
2022-11-10T00:10:12.402Z,99874.19
2022-11-10T00:12:45.752Z,99871.09
2022-11-10T00:15:36.900Z,99867.91
2022-11-10T00:18:10.632Z,99874.66
2022-11-10T00:20:45.768Z,99870.41
2022-11-10T00:23:19.143Z,99887.22
2022-11-10T00:25:52.770Z,99889.78
2022-11-10T00:28:26.198Z,99887.28
2022-11-10T00:31:00.170Z,99883.50
2022-11-10T00:33:36.128Z,99883.28
2022-11-10T00:36:10.925Z,99878.47
2022-11-10T00:38:44.559Z,99878.47
2022-11-10T00:41:18.126Z,99885.41
2022-11-10T00:43:52.035Z,99883.88
2022-11-10T00:46:25.703Z,99881.38
2022-11-10T00:48:59.690Z,99890.19
2022-11-10T00:51:34.926Z,99889.53
2022-11-10T00:54:07.951Z,99879.75
2022-11-10T00:56:40.808Z,99896.09
2022-11-10T00:59:13.686Z,99887.38
2022-11-10T01:01:47.261Z,99894.84
2022-11-10T01:04:21.148Z,99889.59
2022-11-10T01:06:55.628Z,99885.78
2022-11-10T01:09:29.434Z,99896.13
2022-11-10T01:12:03.135Z,99895.66
2022-11-10T01:14:36.913Z,99890.25
2022-11-10T01:17:10.683Z,99900.69
2022-11-10T01:19:44.820Z,99895.06
2022-11-10T01:22:19.827Z,99883.72
2022-11-10T01:24:53.575Z,99890.03
2022-11-10T01:27:27.517Z,99888.94
2022-11-10T01:30:01.324Z,99898.84
2022-11-10T01:32:34.942Z,99881.91
2022-11-10T01:35:09.837Z,99877.44
2022-11-10T01:37:45.690Z,99878.94
2022-11-10T01:40:19.578Z,99872.22
2022-11-10T01:42:55.721Z,99881.88
2022-11-10T01:45:46.727Z,99885.22
2022-11-10T01:48:27.931Z,99885.66
2022-11-10T01:51:05.882Z,99884.81
2022-11-10T01:53:43.536Z,99899.94
2022-11-10T01:56:18.148Z,99913.94
2022-11-10T01:58:55.220Z,99903.25
2022-11-10T02:01:29.100Z,99911.44
2022-11-10T02:04:05.581Z,99902.44
2022-11-10T02:06:45.024Z,99910.88
2022-11-10T02:09:20.898Z,99909.59
2022-11-10T02:11:57.257Z,99911.06
2022-11-10T02:14:31.478Z,99908.31
2022-11-10T02:17:05.143Z,99917.97
2022-11-10T02:19:43.178Z,99907.31
2022-11-10T02:22:18.502Z,99906.47
2022-11-10T02:24:52.296Z,99941.03
2022-11-10T02:27:26.176Z,99931.22
2022-11-10T02:30:00.166Z,99937.72
2022-11-10T02:32:34.054Z,99939.56
2022-11-10T02:35:08.371Z,99946.13
2022-11-10T02:37:43.688Z,99943.41
2022-11-10T02:40:17.967Z,99947.78
2022-11-10T02:42:51.624Z,99956.75
2022-11-10T02:45:26.192Z,99954.22
2022-11-10T02:47:59.943Z,99960.81
2022-11-10T02:50:33.546Z,99958.94
2022-11-10T02:53:09.292Z,99956.00
2022-11-10T02:55:43.459Z,99956.63
2022-11-10T02:58:17.360Z,99961.66
2022-11-10T03:00:50.990Z,99958.72
2022-11-10T03:03:24.985Z,99957.66
2022-11-10T03:05:58.869Z,99963.34
2022-11-10T03:08:34.015Z,99944.88
2022-11-10T03:11:07.930Z,99953.56
2022-11-10T03:14:00.183Z,99957.66
2022-11-10T03:16:33.539Z,99956.84
2022-11-10T03:19:07.342Z,99957.88
2022-11-10T03:21:40.969Z,99938.16
2022-11-10T03:24:16.187Z,99943.59
2022-11-10T03:26:49.017Z,99946.53
2022-11-10T03:29:22.762Z,99947.41
2022-11-10T03:31:56.369Z,99945.91
2022-11-10T03:34:31.941Z,99950.50
2022-11-10T03:37:05.615Z,99942.78
2022-11-10T03:39:41.517Z,99941.09
2022-11-10T03:42:15.241Z,99950.13
2022-11-10T03:44:48.982Z,99945.50
2022-11-10T03:47:22.566Z,99959.78
2022-11-10T03:49:56.572Z,99972.56
2022-11-10T03:52:29.428Z,99973.41
2022-11-10T03:55:04.608Z,99977.59
2022-11-10T03:57:38.198Z,99976.34
2022-11-10T04:00:14.484Z,99967.97
2022-11-10T04:02:48.123Z,99966.47
2022-11-10T04:05:39.021Z,99975.94
2022-11-10T04:08:32.416Z,99966.06
2022-11-10T04:11:08.000Z,99982.66
2022-11-10T04:13:58.378Z,99963.56
2022-11-10T04:16:32.042Z,99944.25
2022-11-10T04:19:05.681Z,99948.00
2022-11-10T04:21:39.421Z,99944.66
2022-11-10T04:24:13.213Z,99931.00
2022-11-10T04:26:48.858Z,99939.63
2022-11-10T04:29:22.501Z,99935.44
2022-11-10T04:31:56.115Z,99943.19
2022-11-10T04:34:29.802Z,99944.66
2022-11-10T04:37:03.525Z,99938.31
2022-11-10T04:39:37.222Z,99933.47
2022-11-10T04:42:12.402Z,99941.25
2022-11-10T04:44:46.055Z,99951.56
2022-11-10T04:47:19.065Z,99952.84
2022-11-10T04:49:52.629Z,99958.66
2022-11-10T04:52:26.486Z,99970.44
2022-11-10T04:55:00.038Z,99975.25
2022-11-10T04:57:35.386Z,99982.44
2022-11-10T05:00:10.966Z,99983.03
2022-11-10T05:02:44.760Z,99999.03
2022-11-10T05:05:18.674Z,99997.34
2022-11-10T05:07:52.457Z,100008.06
2022-11-10T05:10:26.351Z,100004.91
2022-11-10T05:13:01.567Z,99998.97
2022-11-10T05:15:35.519Z,100001.97
2022-11-10T05:18:09.506Z,99996.09
2022-11-10T05:20:42.832Z,100001.13
2022-11-10T05:23:33.695Z,100005.75
2022-11-10T05:26:08.862Z,100002.81
2022-11-10T05:28:45.623Z,100005.53
2022-11-10T05:31:19.166Z,100004.44
2022-11-10T05:33:52.904Z,100004.69
2022-11-10T05:36:26.517Z,99997.94
2022-11-10T05:39:00.228Z,100003.00
2022-11-10T05:41:33.935Z,99992.28
2022-11-10T05:44:09.300Z,99984.69
2022-11-10T05:46:42.936Z,99991.00
2022-11-10T05:49:16.765Z,99987.22
2022-11-10T05:51:50.514Z,99987.88
2022-11-10T05:54:24.250Z,99992.69
2022-11-10T05:56:58.004Z,99998.38
2022-11-10T05:59:33.238Z,99997.75
2022-11-10T06:02:06.853Z,100001.94
2022-11-10T06:04:40.578Z,100000.25
2022-11-10T06:07:14.247Z,99997.53
2022-11-10T06:09:48.825Z,99999.69
2022-11-10T06:12:22.490Z,100012.25
2022-11-10T06:14:58.436Z,100006.56
2022-11-10T06:17:32.010Z,100004.84
2022-11-10T06:20:06.413Z,100012.19
2022-11-10T06:22:40.236Z,99999.44
2022-11-10T06:25:14.181Z,100017.66
2022-11-10T06:27:47.736Z,100026.72
2022-11-10T06:30:23.666Z,100021.06
2022-11-10T06:32:56.866Z,100023.75
2022-11-10T06:35:31.150Z,100032.84
2022-11-10T06:38:06.736Z,100032.84
2022-11-10T06:40:40.429Z,100035.97
2022-11-10T06:43:14.056Z,100025.28
2022-11-10T06:45:49.230Z,100024.44
2022-11-10T06:48:22.869Z,100023.81
2022-11-10T06:50:56.578Z,100022.13
2022-11-10T06:53:30.297Z,100012.88
2022-11-10T06:56:04.231Z,100017.88
2022-11-10T06:58:37.920Z,100026.09
2022-11-10T07:01:13.051Z,100034.75
2022-11-10T07:04:13.053Z,100031.78
2022-11-10T07:06:40.112Z,100022.34
2022-11-10T07:09:13.868Z,100026.75
2022-11-10T07:11:47.797Z,100026.97
2022-11-10T07:14:21.463Z,100031.59
2022-11-10T07:16:56.788Z,100042.94
2022-11-10T07:19:32.718Z,100044.41
2022-11-10T07:22:10.621Z,100037.91
2022-11-10T07:24:44.924Z,100043.78
2022-11-10T07:27:18.661Z,100050.31
2022-11-10T07:29:53.298Z,100054.72
2022-11-10T07:32:28.920Z,100050.09
2022-11-10T07:35:02.327Z,100059.97
2022-11-10T07:37:36.115Z,100061.44
2022-11-10T07:40:10.750Z,100069.22
2022-11-10T07:42:44.470Z,100069.84
2022-11-10T07:45:18.986Z,100057.03
2022-11-10T07:47:54.030Z,100067.97
2022-11-10T07:50:27.813Z,100062.06
2022-11-10T07:53:06.378Z,100078.25
2022-11-10T07:55:41.275Z,100070.28
2022-11-10T07:58:17.467Z,100064.81
2022-11-10T08:00:50.963Z,100074.69
2022-11-10T08:03:26.345Z,100073.22
2022-11-10T08:06:00.014Z,100078.47
2022-11-10T08:08:33.788Z,100093.41
2022-11-10T08:11:07.675Z,100089.41
2022-11-10T08:13:40.531Z,100105.38
2022-11-10T08:16:14.091Z,100098.44
2022-11-10T08:18:49.376Z,100106.03
2022-11-10T08:21:23.324Z,100099.06
2022-11-10T08:23:56.741Z,100100.97
2022-11-10T08:26:29.873Z,100108.97
2022-11-10T08:29:02.742Z,100098.47
2022-11-10T08:31:35.678Z,100108.72
2022-11-10T08:34:10.939Z,100102.59
2022-11-10T08:36:44.391Z,100110.19
2022-11-10T08:39:37.627Z,100116.06
2022-11-10T08:42:11.449Z,100131.19
2022-11-10T08:44:45.152Z,100133.09
2022-11-10T08:47:18.747Z,100142.34
2022-11-10T08:49:53.922Z,100133.44
2022-11-10T08:52:27.540Z,100144.63
2022-11-10T08:55:01.277Z,100132.81
2022-11-10T08:57:34.836Z,100144.88
2022-11-10T09:00:09.357Z,100146.72
2022-11-10T09:02:42.271Z,100159.16
2022-11-10T09:05:16.779Z,100169.88
2022-11-10T09:07:51.044Z,100176.31
2022-11-10T09:10:23.968Z,100171.31
2022-11-10T09:13:01.093Z,100149.88
2022-11-10T09:15:35.711Z,100143.91
2022-11-10T09:18:10.170Z,100146.00
2022-11-10T09:20:44.781Z,100154.84
2022-11-10T09:23:19.781Z,100173.63
2022-11-10T09:25:54.959Z,100178.81
2022-11-10T09:28:28.141Z,100203.06
2022-11-10T09:31:01.418Z,100193.56
2022-11-10T09:33:34.853Z,100192.75
2022-11-10T09:36:10.499Z,100170.22
2022-11-10T09:38:44.057Z,100170.81
2022-11-10T09:41:17.990Z,100168.56
2022-11-10T09:44:03.572Z,100177.81
2022-11-10T09:46:41.603Z,100179.88
2022-11-10T09:49:31.572Z,100186.88
2022-11-10T09:52:08.585Z,100185.97
2022-11-10T09:54:45.651Z,100191.59
2022-11-10T09:57:23.357Z,100193.97
2022-11-10T09:59:56.984Z,100201.47
2022-11-10T10:02:35.067Z,100194.13
2022-11-10T10:05:33.566Z,100211.03
2022-11-10T10:08:10.007Z,100221.72
2022-11-10T10:10:46.315Z,100220.97
2022-11-10T10:13:33.376Z,100220.88
2022-11-10T10:16:16.608Z,100228.31
2022-11-10T10:18:58.078Z,100221.38
2022-11-10T10:21:41.910Z,100234.44
2022-11-10T10:24:22.145Z,100224.13
2022-11-10T10:26:58.527Z,100240.25
2022-11-10T10:29:37.634Z,100225.50
2022-11-10T10:32:13.820Z,100229.66
2022-11-10T10:34:48.003Z,100227.22
2022-11-10T10:37:25.105Z,100211.75
2022-11-10T10:39:59.540Z,100236.13
2022-11-10T10:42:35.111Z,100222.09
2022-11-10T10:45:21.188Z,100230.56
2022-11-10T10:47:56.456Z,100221.91
2022-11-10T10:50:33.549Z,100218.56
2022-11-10T10:53:15.006Z,100225.59
2022-11-10T10:55:59.888Z,100215.25
2022-11-10T10:58:36.118Z,100229.44
2022-11-10T11:01:26.067Z,100219.47
2022-11-10T11:04:00.818Z,100218.69
2022-11-10T11:06:35.388Z,100220.13
2022-11-10T11:09:10.211Z,100223.13
2022-11-10T11:11:46.255Z,100210.66
2022-11-10T11:14:23.535Z,100210.41
2022-11-10T11:16:58.350Z,100201.41
2022-11-10T11:19:34.010Z,100212.16
2022-11-10T11:22:34.154Z,100204.38
2022-11-10T11:25:18.030Z,100217.16
2022-11-10T11:28:03.726Z,100192.13
2022-11-10T11:30:50.557Z,100196.13
2022-11-10T11:33:33.987Z,100202.22
2022-11-10T11:36:18.814Z,100216.88
2022-11-10T11:39:03.650Z,100216.06
2022-11-10T11:41:46.054Z,100222.94
2022-11-10T11:44:42.463Z,100221.72
2022-11-10T11:47:28.550Z,100229.53
2022-11-10T11:50:15.900Z,100219.81
2022-11-10T11:52:58.895Z,100234.78
2022-11-10T11:55:44.694Z,100240.53
2022-11-10T11:58:45.389Z,100243.25
2022-11-10T12:01:35.290Z,100242.25
2022-11-10T12:04:46.162Z,100245.97
2022-11-10T12:07:33.442Z,100249.84
2022-11-10T12:10:20.073Z,100257.94
2022-11-10T12:13:22.814Z,100261.91
2022-11-10T12:16:02.977Z,100260.69
2022-11-10T12:18:49.365Z,100264.13
2022-11-10T12:21:30.868Z,100264.28
2022-11-10T12:24:24.479Z,100263.47
2022-11-10T12:27:00.708Z,100273.19
2022-11-10T12:29:38.666Z,100287.09
2022-11-10T12:32:18.307Z,100272.78
2022-11-10T12:34:58.235Z,100275.91
2022-11-10T12:37:44.139Z,100276.75
2022-11-10T12:40:18.931Z,100282.88
2022-11-10T12:43:00.256Z,100280.69
2022-11-10T12:45:40.456Z,100275.66
2022-11-10T12:48:16.168Z,100289.88
2022-11-10T12:50:56.779Z,100283.38
2022-11-10T12:53:32.460Z,100272.63
2022-11-10T12:56:14.928Z,100283.16
2022-11-10T12:58:47.905Z,100268.75
2022-11-10T13:01:22.087Z,100275.34
2022-11-10T13:03:57.076Z,100268.50
2022-11-10T13:06:35.863Z,100267.03
2022-11-10T13:09:27.179Z,100264.22
2022-11-10T13:12:16.860Z,100266.53
2022-11-10T13:14:50.339Z,100265.78
2022-11-10T13:17:55.090Z,100255.63
2022-11-10T13:20:48.683Z,100256.59
2022-11-10T13:23:28.730Z,100259.16
2022-11-10T13:26:03.390Z,100254.31
2022-11-10T13:29:02.776Z,100256.19
2022-11-10T13:31:57.659Z,100267.78
2022-11-10T13:34:35.902Z,100261.66
2022-11-10T13:37:42.616Z,100269.88
2022-11-10T13:40:35.910Z,100285.31
2022-11-10T13:43:21.184Z,100289.91
2022-11-10T13:46:07.130Z,100299.72
2022-11-10T13:48:50.456Z,100297.00
2022-11-10T13:51:37.175Z,100293.69
2022-11-10T13:54:25.125Z,100288.66
2022-11-10T13:57:22.763Z,100291.50
2022-11-10T13:59:59.384Z,100287.94
2022-11-10T14:03:01.059Z,100289.69
2022-11-10T14:06:03.652Z,100283.06
2022-11-10T14:08:48.570Z,100294.59
2022-11-10T14:11:28.383Z,100287.78
2022-11-10T14:14:12.171Z,100286.56
2022-11-10T14:16:45.440Z,100283.97
2022-11-10T14:19:26.821Z,100290.34
2022-11-10T14:22:04.488Z,100287.38
2022-11-10T14:24:43.988Z,100287.28
2022-11-10T14:27:24.611Z,100291.81
2022-11-10T14:30:25.045Z,100290.63
2022-11-10T14:33:01.086Z,100292.69
2022-11-10T14:35:45.730Z,100294.53
2022-11-10T14:38:21.973Z,100297.75
2022-11-10T14:40:57.437Z,100308.09
2022-11-10T14:43:32.782Z,100300.97
2022-11-10T14:46:08.555Z,100308.09
2022-11-10T14:48:41.506Z,100298.88
2022-11-10T14:51:18.185Z,100303.09
2022-11-10T14:53:54.259Z,100291.84
2022-11-10T14:56:31.140Z,100287.22
2022-11-10T14:59:06.747Z,100278.66
2022-11-10T15:01:49.748Z,100281.66
2022-11-10T15:04:28.131Z,100291.03
2022-11-10T15:07:01.895Z,100284.91
2022-11-10T15:09:35.705Z,100296.34
2022-11-10T15:12:21.421Z,100309.44
2022-11-10T15:15:00.106Z,100292.72
2022-11-10T15:17:50.443Z,100291.06
2022-11-10T15:20:35.812Z,100301.22
2022-11-10T15:23:23.098Z,100292.56
2022-11-10T15:25:56.341Z,100302.66
2022-11-10T15:28:33.899Z,100307.91
2022-11-10T15:31:11.679Z,100308.97
2022-11-10T15:33:49.966Z,100318.66
2022-11-10T15:36:33.202Z,100322.38
2022-11-10T15:39:16.139Z,100336.53
2022-11-10T15:41:50.945Z,100320.72
2022-11-10T15:44:25.873Z,100302.63
2022-11-10T15:47:00.164Z,100319.19
2022-11-10T15:49:38.216Z,100330.03
2022-11-10T15:52:17.320Z,100338.06
2022-11-10T15:54:51.818Z,100339.28
2022-11-10T15:57:24.728Z,100327.03
2022-11-10T15:59:57.679Z,100323.94
2022-11-10T16:02:31.680Z,100331.72
2022-11-10T16:05:12.274Z,100334.69
2022-11-10T16:07:45.117Z,100329.25
2022-11-10T16:10:18.068Z,100333.22
2022-11-10T16:12:51.034Z,100339.72
2022-11-10T16:15:23.997Z,100346.69
2022-11-10T16:17:57.021Z,100348.31
2022-11-10T16:20:31.433Z,100326.25
2022-11-10T16:23:04.338Z,100333.84
2022-11-10T16:25:37.467Z,100338.25
2022-11-10T16:28:12.112Z,100347.78
2022-11-10T16:30:45.893Z,100351.13
2022-11-10T16:33:21.894Z,100349.84
2022-11-10T16:35:57.202Z,100350.69
2022-11-10T16:38:31.587Z,100365.22
2022-11-10T16:41:05.791Z,100366.69
2022-11-10T16:43:38.695Z,100365.03
2022-11-10T16:46:19.704Z,100355.09
2022-11-10T16:48:56.647Z,100344.59
2022-11-10T16:51:35.037Z,100353.63
2022-11-10T16:54:10.062Z,100363.94
2022-11-10T16:56:43.042Z,100350.25
2022-11-10T16:59:17.386Z,100350.06
2022-11-10T17:01:52.146Z,100353.22
2022-11-10T17:04:25.785Z,100347.31
2022-11-10T17:07:00.930Z,100349.19
2022-11-10T17:09:34.735Z,100358.06
2022-11-10T17:12:08.121Z,100363.31
2022-11-10T17:14:42.816Z,100351.94
2022-11-10T17:17:19.994Z,100365.88
2022-11-10T17:19:53.857Z,100372.56
2022-11-10T17:22:35.049Z,100373.44
2022-11-10T17:25:16.718Z,100384.78
2022-11-10T17:27:50.481Z,100380.97
2022-11-10T17:30:23.954Z,100383.72
2022-11-10T17:33:06.686Z,100388.16
2022-11-10T17:35:45.995Z,100391.50
2022-11-10T17:38:25.465Z,100380.94
2022-11-10T17:40:58.567Z,100397.34
2022-11-10T17:43:31.390Z,100399.44
2022-11-10T17:46:05.009Z,100382.84
2022-11-10T17:48:38.813Z,100391.28
2022-11-10T17:51:14.837Z,100388.53
2022-11-10T17:53:50.939Z,100397.78
2022-11-10T17:56:23.753Z,100402.97
2022-11-10T17:58:57.826Z,100413.16
2022-11-10T18:01:31.350Z,100396.16
2022-11-10T18:04:05.363Z,100404.13
2022-11-10T18:06:38.359Z,100407.31
2022-11-10T18:09:12.570Z,100424.09
2022-11-10T18:11:46.160Z,100422.03
2022-11-10T18:14:19.110Z,100409.59
2022-11-10T18:16:52.859Z,100409.22
2022-11-10T18:19:25.735Z,100420.13
2022-11-10T18:21:58.521Z,100415.75
2022-11-10T18:24:32.752Z,100404.50
2022-11-10T18:27:06.204Z,100413.78
2022-11-10T18:29:39.054Z,100429.00
2022-11-10T18:32:11.864Z,100420.09
2022-11-10T18:34:45.607Z,100418.84
2022-11-10T18:37:20.258Z,100414.03
2022-11-10T18:39:55.163Z,100403.38
2022-11-10T18:42:28.949Z,100403.28
2022-11-10T18:45:02.720Z,100417.19
2022-11-10T18:47:36.381Z,100403.06
2022-11-10T18:50:10.877Z,100402.22
2022-11-10T18:52:44.517Z,100399.44
2022-11-10T18:55:20.794Z,100408.34
2022-11-10T18:57:54.242Z,100423.72
2022-11-10T19:00:28.019Z,100402.38
2022-11-10T19:03:01.662Z,100421.34
2022-11-10T19:05:35.454Z,100409.53
2022-11-10T19:08:09.225Z,100406.84
2022-11-10T19:10:45.321Z,100411.66
2022-11-10T19:13:19.058Z,100417.28
2022-11-10T19:15:53.697Z,100412.50
2022-11-10T19:18:27.566Z,100411.25
2022-11-10T19:21:06.285Z,100424.41
2022-11-10T19:23:39.214Z,100417.72
2022-11-10T19:26:21.861Z,100416.59
2022-11-10T19:28:56.512Z,100406.81
2022-11-10T19:31:30.259Z,100417.06
2022-11-10T19:34:03.819Z,100426.06
2022-11-10T19:36:37.572Z,100425.50
2022-11-10T19:39:11.562Z,100426.28
2022-11-10T19:41:46.743Z,100420.63
2022-11-10T19:44:20.621Z,100395.66
2022-11-10T19:46:54.535Z,100418.34
2022-11-10T19:49:28.374Z,100422.59
2022-11-10T19:52:01.748Z,100437.75
2022-11-10T19:54:35.605Z,100433.41
2022-11-10T19:57:10.918Z,100433.03
2022-11-10T19:59:44.493Z,100443.44
2022-11-10T20:02:17.383Z,100436.53
2022-11-10T20:05:08.038Z,100438.59
2022-11-10T20:07:58.832Z,100432.59
2022-11-10T20:10:32.604Z,100437.28
2022-11-10T20:13:08.181Z,100431.13
2022-11-10T20:15:42.718Z,100434.56
2022-11-10T20:18:16.646Z,100459.41
2022-11-10T20:20:50.429Z,100475.22
2022-11-10T20:23:24.682Z,100460.47
2022-11-10T20:26:06.050Z,100461.50
2022-11-10T20:28:41.731Z,100476.03
2022-11-10T20:31:20.440Z,100467.66
2022-11-10T20:33:56.523Z,100460.47
2022-11-10T20:36:31.802Z,100483.59
2022-11-10T20:39:05.615Z,100485.06
2022-11-10T20:41:39.273Z,100491.41
2022-11-10T20:44:14.707Z,100487.63
2022-11-10T20:46:54.341Z,100500.47
2022-11-10T20:49:28.729Z,100498.38
2022-11-10T20:52:03.495Z,100481.50
2022-11-10T20:54:37.167Z,100480.25
2022-11-10T20:57:10.820Z,100476.47
2022-11-10T20:59:46.261Z,100488.66
2022-11-10T21:02:19.875Z,100482.16
2022-11-10T21:04:53.599Z,100479.25
2022-11-10T21:07:27.744Z,100486.03
2022-11-10T21:10:01.409Z,100475.03
2022-11-10T21:12:53.242Z,100487.81
2022-11-10T21:15:28.544Z,100501.00
2022-11-10T21:18:02.400Z,100503.34
2022-11-10T21:20:36.075Z,100500.44
2022-11-10T21:23:08.848Z,100510.13
2022-11-10T21:25:42.674Z,100517.16
2022-11-10T21:28:16.269Z,100521.69
2022-11-10T21:30:50.727Z,100532.03
2022-11-10T21:33:24.490Z,100534.16
2022-11-10T21:35:58.407Z,100535.88
2022-11-10T21:38:32.029Z,100525.34
2022-11-10T21:41:06.119Z,100538.34
2022-11-10T21:43:39.916Z,100532.47
2022-11-10T21:46:15.231Z,100548.41
2022-11-10T21:48:49.014Z,100545.53
2022-11-10T21:51:22.748Z,100545.97
2022-11-10T21:53:55.705Z,100540.72
2022-11-10T21:56:29.571Z,100537.09
2022-11-10T21:59:02.999Z,100541.75
2022-11-10T22:01:38.485Z,100539.53
2022-11-10T22:04:12.246Z,100538.97
2022-11-10T22:07:03.341Z,100543.88
2022-11-10T22:09:54.447Z,100541.25
2022-11-10T22:12:45.257Z,100546.53
2022-11-10T22:15:36.557Z,100543.47
2022-11-10T22:18:33.283Z,100539.97
2022-11-10T22:21:08.070Z,100552.97
2022-11-10T22:23:58.350Z,100556.72
2022-11-10T22:26:31.926Z,100554.31
2022-11-10T22:29:05.645Z,100554.69
2022-11-10T22:31:39.258Z,100556.69
2022-11-10T22:34:14.543Z,100557.28
2022-11-10T22:36:49.516Z,100556.06
2022-11-10T22:39:23.470Z,100555.16
2022-11-10T22:42:14.629Z,100558.16
2022-11-10T22:44:48.581Z,100557.53
2022-11-10T22:47:22.404Z,100560.47
2022-11-10T22:49:56.890Z,100560.16
2022-11-10T22:52:30.827Z,100561.25
2022-11-10T22:55:04.852Z,100567.09
2022-11-10T22:57:37.773Z,100565.44
2022-11-10T23:00:12.646Z,100572.50
2022-11-10T23:02:46.328Z,100574.84
2022-11-10T23:05:20.690Z,100580.81
2022-11-10T23:07:56.167Z,100571.13
2022-11-10T23:10:29.444Z,100583.63
2022-11-10T23:13:03.054Z,100577.31
2022-11-10T23:15:36.795Z,100576.16
2022-11-10T23:18:10.439Z,100580.09
2022-11-10T23:20:45.734Z,100589.84
2022-11-10T23:23:19.254Z,100585.41
2022-11-10T23:26:00.377Z,100591.28
2022-11-10T23:28:35.545Z,100600.22
2022-11-10T23:31:12.517Z,100587.53
2022-11-10T23:33:47.257Z,100589.78
2022-11-10T23:36:24.390Z,100588.78
2022-11-10T23:38:57.974Z,100586.53
2022-11-10T23:41:31.787Z,100581.22
2022-11-10T23:44:05.653Z,100589.72
2022-11-10T23:46:39.411Z,100584.06
2022-11-10T23:49:13.061Z,100569.25
2022-11-10T23:51:47.375Z,100568.81
2022-11-10T23:54:21.013Z,100589.03
2022-11-10T23:56:55.010Z,100571.44
2022-11-10T23:59:28.573Z,100572.69
